createdAt,value
2022-11-19T00:02:18.771Z,21.83
2022-11-19T00:04:48.067Z,19.63
2022-11-19T00:07:17.749Z,23.67
2022-11-19T00:09:46.751Z,20.23
2022-11-19T00:12:33.780Z,18.27
2022-11-19T00:15:02.939Z,18.83
2022-11-19T00:17:33.446Z,17.30
2022-11-19T00:20:03.065Z,17.65
2022-11-19T00:22:32.457Z,19.35
2022-11-19T00:25:01.904Z,19.25
2022-11-19T00:27:32.388Z,19.10
2022-11-19T00:30:05.509Z,16.60
2022-11-19T00:32:41.744Z,15.55
2022-11-19T00:35:11.369Z,17.15
2022-11-19T00:37:40.645Z,16.40
2022-11-19T00:40:12.087Z,16.10
2022-11-19T00:43:01.364Z,15.52
2022-11-19T00:45:30.810Z,14.38
2022-11-19T00:48:01.246Z,16.65
2022-11-19T00:50:30.300Z,13.15
2022-11-19T00:52:59.658Z,16.35
2022-11-19T00:55:28.684Z,13.75
2022-11-19T00:57:58.211Z,17.17
2022-11-19T01:00:27.437Z,12.95
2022-11-19T01:02:56.806Z,15.20
2022-11-19T01:05:27.426Z,16.00
2022-11-19T01:07:56.325Z,13.30
2022-11-19T01:10:25.353Z,13.18
2022-11-19T01:13:12.410Z,10.10
2022-11-19T01:15:41.309Z,13.52
2022-11-19T01:18:10.445Z,11.30
2022-11-19T01:20:41.116Z,14.07
2022-11-19T01:23:10.741Z,9.13
2022-11-19T01:25:40.353Z,14.65
2022-11-19T01:28:09.546Z,10.70
2022-11-19T01:30:41.977Z,12.10
2022-11-19T01:33:11.722Z,12.90
2022-11-19T01:35:42.354Z,10.25
2022-11-19T01:38:11.626Z,12.63
2022-11-19T01:40:45.116Z,10.35
2022-11-19T01:43:15.173Z,8.95
2022-11-19T01:45:48.277Z,8.77
2022-11-19T01:48:24.222Z,11.15
2022-11-19T01:50:58.534Z,10.23
2022-11-19T01:53:31.454Z,12.73
2022-11-19T01:56:05.037Z,9.87
2022-11-19T01:58:39.777Z,10.88
2022-11-19T02:01:10.444Z,8.48
2022-11-19T02:03:40.638Z,9.43
2022-11-19T02:06:12.856Z,7.88
2022-11-19T02:08:43.681Z,9.13
2022-11-19T02:11:38.916Z,7.15
2022-11-19T02:14:24.512Z,8.20
2022-11-19T02:17:02.180Z,7.47
2022-11-19T02:19:53.616Z,7.15
2022-11-19T02:22:45.689Z,7.65
2022-11-19T02:25:29.099Z,7.00
2022-11-19T02:28:15.498Z,8.05
2022-11-19T02:30:51.663Z,7.00
2022-11-19T02:33:27.264Z,6.10
2022-11-19T02:36:01.624Z,8.88
2022-11-19T02:38:38.142Z,7.53
2022-11-19T02:41:28.059Z,7.18
2022-11-19T02:44:17.256Z,5.97
2022-11-19T02:46:50.023Z,6.85
2022-11-19T02:49:22.455Z,8.30
2022-11-19T02:51:51.857Z,7.32
2022-11-19T02:54:20.990Z,6.38
2022-11-19T02:56:52.973Z,7.22
2022-11-19T02:59:45.056Z,5.85
2022-11-19T03:02:36.136Z,5.50
2022-11-19T03:05:08.948Z,6.72
2022-11-19T03:07:38.750Z,6.38
2022-11-19T03:10:10.626Z,6.90
2022-11-19T03:12:49.541Z,6.43
2022-11-19T03:15:48.551Z,6.18
2022-11-19T03:18:23.425Z,5.50
2022-11-19T03:20:56.660Z,6.47
2022-11-19T03:23:30.600Z,6.00
2022-11-19T03:26:04.542Z,7.38
2022-11-19T03:28:37.652Z,4.70
2022-11-19T03:31:08.592Z,5.75
2022-11-19T03:33:42.792Z,5.60
2022-11-19T03:36:15.353Z,7.38
2022-11-19T03:38:47.853Z,6.93
2022-11-19T03:41:21.359Z,6.70
2022-11-19T03:43:55.428Z,5.57
2022-11-19T03:46:27.098Z,4.35
2022-11-19T03:48:58.347Z,4.97
2022-11-19T03:51:33.839Z,4.38
2022-11-19T03:54:02.942Z,6.95
2022-11-19T03:56:36.325Z,6.03
2022-11-19T03:59:08.435Z,5.28
2022-11-19T04:01:37.872Z,5.00
2022-11-19T04:04:25.552Z,5.40
2022-11-19T04:06:55.959Z,5.93
2022-11-19T04:09:25.137Z,5.07
2022-11-19T04:14:21.940Z,4.85
2022-11-19T04:16:51.189Z,4.55
2022-11-19T04:19:21.838Z,3.72
2022-11-19T04:21:51.216Z,4.95
2022-11-19T04:24:20.715Z,5.30
2022-11-19T04:26:49.836Z,4.75
2022-11-19T04:29:19.367Z,4.85
2022-11-19T04:31:49.093Z,6.82
2022-11-19T04:34:18.605Z,6.07
2022-11-19T04:36:48.843Z,5.38
2022-11-19T04:39:18.532Z,5.95
2022-11-19T04:41:47.937Z,6.18
2022-11-19T04:44:17.479Z,5.57
2022-11-19T04:46:46.623Z,5.38
2022-11-19T04:49:15.655Z,6.68
2022-11-19T04:51:44.818Z,6.60
2022-11-19T04:54:15.989Z,6.07
2022-11-19T04:56:46.515Z,5.53
2022-11-19T04:59:15.431Z,6.60
2022-11-19T05:01:45.066Z,5.78
2022-11-19T05:04:14.260Z,5.72
2022-11-19T05:06:43.572Z,5.90
2022-11-19T05:09:14.070Z,4.75
2022-11-19T05:11:42.945Z,5.65
2022-11-19T05:14:12.177Z,4.68
2022-11-19T05:16:41.656Z,5.38
2022-11-19T05:19:11.110Z,4.70
2022-11-19T05:21:40.622Z,4.55
2022-11-19T05:24:10.252Z,4.32
2022-11-19T05:26:43.269Z,4.40
2022-11-19T05:29:12.708Z,3.38
2022-11-19T05:31:41.982Z,5.90
2022-11-19T05:34:12.976Z,3.58
2022-11-19T05:36:42.522Z,4.95
2022-11-19T05:39:12.154Z,3.85
2022-11-19T05:41:43.966Z,5.25
2022-11-19T05:44:13.426Z,5.15
2022-11-19T05:46:44.586Z,3.60
2022-11-19T05:49:16.915Z,3.47
2022-11-19T05:51:48.202Z,4.38
2022-11-19T05:54:17.440Z,5.97
2022-11-19T05:56:48.496Z,4.47
2022-11-19T05:59:18.161Z,5.57
2022-11-19T06:01:47.104Z,5.70
2022-11-19T06:04:15.882Z,6.22
2022-11-19T06:06:45.209Z,5.65
2022-11-19T06:09:14.587Z,4.65
2022-11-19T06:11:50.526Z,4.65
2022-11-19T06:14:23.222Z,4.55
2022-11-19T06:16:52.880Z,9.63
2022-11-19T06:19:22.755Z,6.03
2022-11-19T06:21:53.002Z,7.20
2022-11-19T06:24:22.885Z,4.43
2022-11-19T06:26:53.104Z,5.60
2022-11-19T06:29:23.232Z,5.93
2022-11-19T06:31:52.463Z,7.35
2022-11-19T06:34:21.665Z,5.50
2022-11-19T06:36:51.043Z,5.90
2022-11-19T06:39:20.413Z,5.22
2022-11-19T06:41:49.768Z,5.40
2022-11-19T06:44:19.097Z,6.28
2022-11-19T06:46:49.404Z,6.25
2022-11-19T06:49:20.535Z,5.22
2022-11-19T06:51:49.997Z,7.35
2022-11-19T06:54:19.101Z,6.25
2022-11-19T06:56:48.225Z,5.13
2022-11-19T06:59:17.979Z,4.93
2022-11-19T07:01:48.036Z,4.78
2022-11-19T07:04:18.698Z,4.22
2022-11-19T07:06:47.868Z,4.80
2022-11-19T07:09:18.279Z,5.18
2022-11-19T07:11:47.557Z,6.07
2022-11-19T07:14:17.134Z,5.55
2022-11-19T07:16:46.395Z,5.78
2022-11-19T07:19:15.979Z,8.77
2022-11-19T07:21:46.554Z,5.82
2022-11-19T07:24:18.461Z,5.15
2022-11-19T07:26:47.922Z,4.95
2022-11-19T07:29:18.293Z,5.28
2022-11-19T07:31:50.571Z,6.30
2022-11-19T07:34:20.342Z,6.72
2022-11-19T07:36:51.072Z,5.22
2022-11-19T07:39:20.466Z,6.15
2022-11-19T07:42:07.696Z,6.57
2022-11-19T07:44:37.101Z,6.05
2022-11-19T07:47:08.529Z,6.57
2022-11-19T07:49:38.365Z,7.95
2022-11-19T07:52:09.394Z,7.13
2022-11-19T07:54:38.816Z,7.93
2022-11-19T07:57:08.110Z,7.22
2022-11-19T07:59:37.282Z,7.70
2022-11-19T08:02:06.998Z,6.95
2022-11-19T08:04:36.212Z,8.30
2022-11-19T08:07:05.173Z,8.18
2022-11-19T08:09:36.061Z,6.45
2022-11-19T08:12:05.594Z,8.57
2022-11-19T08:14:35.217Z,7.35
2022-11-19T08:17:22.360Z,8.10
2022-11-19T08:19:51.654Z,9.30
2022-11-19T08:22:20.855Z,8.20
2022-11-19T08:24:51.383Z,9.07
2022-11-19T08:27:20.423Z,9.88
2022-11-19T08:29:49.707Z,8.20
2022-11-19T08:32:19.707Z,8.98
2022-11-19T08:34:48.792Z,8.80
2022-11-19T08:37:18.106Z,9.70
2022-11-19T08:39:47.696Z,7.95
2022-11-19T08:42:35.335Z,8.18
2022-11-19T08:45:05.477Z,10.93
2022-11-19T08:47:34.706Z,8.50
2022-11-19T08:50:06.655Z,9.98
2022-11-19T08:52:37.756Z,9.15
2022-11-19T08:55:08.404Z,8.82
2022-11-19T08:57:38.863Z,10.55
2022-11-19T09:00:09.901Z,9.10
2022-11-19T09:02:39.996Z,8.98
2022-11-19T09:05:14.412Z,9.98
2022-11-19T09:07:44.654Z,13.48
2022-11-19T09:10:13.615Z,11.25
2022-11-19T09:12:44.051Z,10.95
2022-11-19T09:15:13.858Z,10.65
2022-11-19T09:17:46.769Z,11.70
2022-11-19T09:20:16.859Z,10.05
2022-11-19T09:22:46.487Z,10.50
2022-11-19T09:25:16.010Z,12.38
2022-11-19T09:27:47.068Z,11.30
2022-11-19T09:30:16.834Z,11.10
2022-11-19T09:32:46.116Z,13.07
2022-11-19T09:35:15.396Z,12.00
2022-11-19T09:37:44.832Z,11.73
2022-11-19T09:40:17.820Z,14.82
2022-11-19T09:43:01.591Z,13.00
2022-11-19T09:45:47.617Z,14.82
2022-11-19T09:48:29.855Z,13.82
2022-11-19T09:51:03.979Z,11.07
2022-11-19T09:53:41.041Z,13.32
2022-11-19T09:56:14.682Z,10.30
2022-11-19T09:58:46.361Z,10.90
2022-11-19T10:01:17.476Z,8.98
2022-11-19T10:03:50.045Z,8.40
2022-11-19T10:06:29.094Z,8.57
2022-11-19T10:09:12.717Z,9.80
2022-11-19T10:11:54.404Z,10.85
2022-11-19T10:14:43.037Z,7.35
2022-11-19T10:17:24.235Z,7.03
2022-11-19T10:20:10.803Z,7.75
2022-11-19T10:22:56.962Z,7.13
2022-11-19T10:25:33.506Z,8.00
2022-11-19T10:28:09.559Z,7.43
2022-11-19T10:30:42.427Z,6.93
2022-11-19T10:33:18.417Z,9.27
2022-11-19T10:35:52.872Z,7.22
2022-11-19T10:38:28.007Z,7.93
2022-11-19T10:41:00.665Z,9.85
2022-11-19T10:43:33.851Z,10.75
2022-11-19T10:46:07.543Z,11.90
2022-11-19T10:48:42.668Z,7.75
2022-11-19T10:51:15.809Z,10.35
2022-11-19T10:53:45.676Z,8.13
2022-11-19T10:56:17.857Z,9.27
2022-11-19T10:58:50.214Z,9.93
2022-11-19T11:01:28.410Z,11.02
2022-11-19T11:04:08.474Z,10.45
2022-11-19T11:06:54.539Z,9.35
2022-11-19T11:09:31.270Z,9.73
2022-11-19T11:12:21.705Z,8.27
2022-11-19T11:14:54.326Z,10.10
2022-11-19T11:17:26.900Z,10.45
2022-11-19T11:20:01.149Z,10.32
2022-11-19T11:22:31.244Z,9.90
2022-11-19T11:25:06.786Z,10.80
2022-11-19T11:27:37.662Z,10.38
2022-11-19T11:30:17.372Z,10.25
2022-11-19T11:32:48.202Z,8.77
2022-11-19T11:35:31.906Z,10.25
2022-11-19T11:38:02.640Z,8.45
2022-11-19T11:40:32.567Z,10.98
2022-11-19T11:43:02.483Z,8.00
2022-11-19T11:45:33.242Z,10.85
2022-11-19T11:48:08.804Z,10.05
2022-11-19T11:50:38.559Z,8.02
2022-11-19T11:53:10.260Z,10.10
2022-11-19T11:55:40.434Z,9.18
2022-11-19T11:58:28.687Z,12.75
2022-11-19T12:01:15.615Z,8.60
2022-11-19T12:03:55.598Z,10.77
2022-11-19T12:06:27.346Z,8.77
2022-11-19T12:09:06.361Z,8.38
2022-11-19T12:11:56.173Z,10.18
2022-11-19T12:14:28.789Z,12.35
2022-11-19T12:17:09.714Z,12.10
2022-11-19T12:19:56.368Z,9.38
2022-11-19T12:22:41.536Z,14.65
2022-11-19T12:25:33.416Z,10.20
2022-11-19T12:28:15.778Z,10.52
2022-11-19T12:30:56.723Z,9.52
2022-11-19T12:33:48.882Z,10.73
2022-11-19T12:36:26.788Z,10.73
2022-11-19T12:39:04.290Z,10.63
2022-11-19T12:41:56.596Z,9.65
2022-11-19T12:44:41.296Z,9.50
2022-11-19T12:47:32.136Z,9.13
2022-11-19T12:50:20.505Z,9.15
2022-11-19T12:53:14.729Z,9.88
2022-11-19T12:55:54.802Z,8.60
2022-11-19T12:58:37.684Z,9.98
2022-11-19T13:01:17.438Z,9.63
2022-11-19T13:04:01.009Z,11.70
2022-11-19T13:06:39.443Z,11.02
2022-11-19T13:09:18.652Z,11.38
2022-11-19T13:11:53.508Z,12.45
2022-11-19T13:14:35.088Z,11.52
2022-11-19T13:17:16.318Z,9.90
2022-11-19T13:19:50.281Z,11.43
2022-11-19T13:22:25.696Z,10.80
2022-11-19T13:25:02.569Z,12.65
2022-11-19T13:27:37.989Z,9.88
2022-11-19T13:30:18.203Z,10.23
2022-11-19T14:18:26.681Z,13.40
2022-11-19T14:21:14.118Z,10.05
2022-11-19T14:24:03.312Z,11.25
2022-11-19T14:27:09.962Z,9.60
2022-11-19T14:29:58.208Z,12.05
2022-11-19T14:32:46.646Z,9.82
2022-11-19T14:35:40.788Z,11.73
2022-11-19T14:38:33.823Z,10.77
2022-11-19T14:41:33.906Z,11.00
2022-11-19T14:44:10.810Z,10.30
2022-11-19T14:46:48.598Z,9.25
2022-11-19T14:49:38.040Z,9.35
2022-11-19T14:52:21.375Z,11.45
2022-11-19T14:54:56.733Z,8.57
2022-11-19T14:57:30.013Z,12.07
2022-11-19T15:00:02.594Z,9.70
2022-11-19T15:02:36.572Z,11.90
2022-11-19T15:05:16.722Z,12.82
2022-11-19T15:07:55.652Z,9.85
2022-11-19T15:10:31.624Z,11.00
2022-11-19T15:13:18.585Z,9.65
2022-11-19T15:15:50.211Z,12.43
2022-11-19T15:18:42.850Z,10.60
2022-11-19T15:21:36.225Z,10.25
2022-11-19T15:24:22.520Z,9.73
2022-11-19T15:27:04.620Z,11.32
2022-11-19T15:30:02.200Z,11.18
2022-11-19T15:32:48.783Z,12.45
2022-11-19T15:35:38.266Z,11.30
2022-11-19T15:38:15.544Z,10.43
2022-11-19T15:40:52.466Z,11.48
2022-11-19T15:43:27.777Z,12.23
2022-11-19T15:46:02.420Z,12.40
2022-11-19T15:48:38.549Z,10.60
2022-11-19T15:51:12.304Z,10.40
2022-11-19T15:56:34.201Z,9.95
2022-11-19T15:59:04.759Z,11.57
2022-11-19T16:01:34.667Z,10.95
2022-11-19T16:04:08.698Z,11.13
2022-11-19T16:06:47.256Z,13.13
2022-11-19T16:09:22.912Z,12.38
2022-11-19T16:12:12.405Z,10.93
2022-11-19T16:14:59.424Z,14.85
2022-11-19T16:17:43.159Z,13.98
2022-11-19T16:20:22.022Z,11.88
2022-11-19T16:22:56.810Z,12.57
2022-11-19T16:25:31.688Z,11.82
2022-11-19T16:28:04.148Z,13.10
2022-11-19T16:30:43.635Z,12.07
2022-11-19T16:33:17.503Z,12.73
2022-11-19T16:35:52.379Z,13.07
2022-11-19T16:38:30.757Z,14.15
2022-11-19T16:41:17.785Z,11.13
2022-11-19T16:43:49.641Z,12.73
2022-11-19T16:46:23.440Z,11.80
2022-11-19T16:51:32.645Z,13.63
2022-11-19T16:54:02.553Z,13.07
2022-11-19T16:56:44.920Z,16.20
2022-11-19T16:59:21.699Z,12.13
2022-11-19T17:01:56.444Z,11.48
2022-11-19T17:04:28.476Z,12.90
2022-11-19T17:06:58.915Z,11.98
2022-11-19T17:09:36.079Z,9.35
2022-11-19T17:12:25.218Z,15.48
2022-11-19T17:15:00.052Z,14.80
2022-11-19T17:17:41.460Z,11.25
2022-11-19T17:20:56.204Z,13.48
2022-11-19T17:23:26.980Z,11.85
2022-11-19T17:25:58.456Z,13.98
2022-11-19T17:28:36.149Z,12.73
2022-11-19T17:31:15.240Z,10.77
2022-11-19T17:33:55.690Z,15.63
2022-11-19T17:36:27.974Z,12.00
2022-11-19T17:38:57.599Z,16.08
2022-11-19T17:41:48.168Z,12.75
2022-11-19T17:44:39.442Z,15.63
2022-11-19T17:47:24.389Z,15.50
2022-11-19T17:49:54.590Z,14.52
2022-11-19T17:52:26.818Z,16.90
2022-11-19T17:54:58.734Z,15.10
2022-11-19T17:57:27.909Z,14.48
2022-11-19T18:00:00.142Z,14.90
2022-11-19T18:02:32.911Z,16.25
2022-11-19T18:05:02.429Z,16.55
2022-11-19T18:07:34.424Z,14.30
2022-11-19T18:10:06.627Z,13.95
2022-11-19T18:12:38.520Z,13.68
2022-11-19T18:15:09.044Z,16.33
2022-11-19T18:17:40.582Z,15.90
2022-11-19T18:20:15.010Z,14.27
2022-11-19T18:22:44.955Z,16.80
2022-11-19T18:25:17.548Z,16.60
2022-11-19T18:27:47.223Z,15.93
2022-11-19T18:30:17.087Z,15.65
2022-11-19T18:32:47.784Z,17.58
2022-11-19T18:35:21.036Z,14.98
2022-11-19T18:37:52.307Z,15.52
2022-11-19T18:40:22.784Z,16.23
2022-11-19T18:43:09.878Z,13.23
2022-11-19T18:45:41.145Z,14.18
2022-11-19T18:48:11.636Z,15.43
2022-11-19T18:50:41.693Z,17.02
2022-11-19T18:53:12.791Z,14.43
2022-11-19T18:55:43.433Z,16.17
2022-11-19T18:58:14.391Z,14.57
2022-11-19T19:00:45.597Z,14.60
2022-11-19T19:03:16.859Z,10.77
2022-11-19T19:05:46.688Z,12.98
2022-11-19T19:08:16.394Z,17.27
2022-11-19T19:10:48.344Z,12.20
2022-11-19T19:13:16.735Z,11.38
2022-11-19T19:15:46.821Z,14.77
2022-11-19T19:18:17.614Z,14.40
2022-11-19T19:20:47.477Z,13.80
2022-11-19T19:23:20.297Z,12.10
2022-11-19T19:25:49.758Z,16.30
2022-11-19T19:28:19.397Z,12.68
2022-11-19T19:30:48.617Z,12.00
2022-11-19T19:33:19.583Z,12.70
2022-11-19T19:35:49.263Z,12.98
2022-11-19T19:38:19.597Z,15.38
2022-11-19T19:40:49.099Z,15.63
2022-11-19T19:43:19.213Z,13.73
2022-11-19T19:45:49.174Z,14.55
2022-11-19T19:48:20.043Z,13.85
2022-11-19T19:50:52.924Z,13.95
2022-11-19T19:53:24.800Z,15.97
2022-11-19T19:56:03.577Z,12.98
2022-11-19T19:58:34.541Z,16.73
2022-11-19T20:01:07.894Z,13.10
2022-11-19T20:03:39.977Z,13.23
2022-11-19T20:06:13.183Z,13.73
2022-11-19T20:08:43.597Z,12.23
2022-11-19T20:11:14.791Z,12.63
2022-11-19T20:13:45.129Z,13.27
2022-11-19T20:16:18.417Z,13.32
2022-11-19T20:18:50.957Z,14.35
2022-11-19T20:21:21.767Z,12.90
2022-11-19T20:23:51.804Z,12.82
2022-11-19T20:26:23.248Z,13.02
2022-11-19T20:28:56.230Z,14.57
2022-11-19T20:31:26.730Z,13.70
2022-11-19T20:34:01.293Z,16.60
2022-11-19T20:36:33.129Z,12.75
2022-11-19T20:39:03.191Z,12.85
2022-11-19T20:41:51.094Z,13.68
2022-11-19T20:44:23.590Z,11.05
2022-11-19T20:46:56.156Z,11.45
2022-11-19T20:49:30.410Z,10.82
2022-11-19T20:52:02.412Z,13.77
2022-11-19T20:54:31.901Z,12.02
2022-11-19T20:57:02.651Z,10.68
2022-11-19T20:59:33.292Z,12.73
2022-11-19T21:02:03.230Z,13.55
2022-11-19T21:04:37.202Z,11.10
2022-11-19T21:07:08.456Z,12.25
2022-11-19T21:09:40.043Z,11.25
2022-11-19T21:12:09.638Z,11.85
2022-11-19T21:14:39.165Z,9.82
2022-11-19T21:17:08.408Z,13.75
2022-11-19T21:19:39.808Z,12.13
2022-11-19T21:22:09.195Z,12.45
2022-11-19T21:24:38.734Z,10.07
2022-11-19T21:27:08.066Z,10.75
2022-11-19T21:29:40.787Z,10.80
2022-11-19T21:32:10.068Z,10.35
2022-11-19T21:34:41.926Z,10.95
2022-11-19T21:37:11.085Z,14.23
2022-11-19T21:39:59.331Z,13.38
2022-11-19T21:42:28.630Z,10.30
2022-11-19T21:44:57.918Z,14.10
2022-11-19T21:47:27.077Z,14.65
2022-11-19T21:50:00.183Z,10.77
2022-11-19T21:52:29.989Z,12.38
2022-11-19T21:54:59.877Z,15.73
2022-11-19T21:57:31.982Z,11.55
2022-11-19T22:00:01.398Z,10.45
2022-11-19T22:02:34.252Z,11.55
2022-11-19T22:05:09.425Z,10.52
2022-11-19T22:07:41.610Z,13.05
2022-11-19T22:10:11.893Z,11.48
2022-11-19T22:12:41.264Z,13.77
2022-11-19T22:15:18.517Z,13.68
2022-11-19T22:17:50.272Z,13.55
2022-11-19T22:20:23.815Z,12.57
2022-11-19T22:22:53.149Z,10.98
2022-11-19T22:25:22.532Z,14.93
2022-11-19T22:27:51.662Z,14.05
2022-11-19T22:30:21.225Z,13.48
2022-11-19T22:32:50.922Z,14.45
2022-11-19T22:35:21.810Z,14.38
2022-11-19T22:37:50.754Z,14.07
2022-11-19T22:40:20.463Z,13.95
2022-11-19T22:42:50.786Z,16.00
2022-11-19T22:45:20.333Z,14.73
2022-11-19T22:47:50.410Z,14.73
2022-11-19T22:50:21.046Z,11.35
2022-11-19T22:52:50.608Z,13.52
2022-11-19T22:55:20.130Z,15.23
2022-11-19T22:57:49.660Z,14.35
2022-11-19T23:00:39.811Z,15.23
2022-11-19T23:03:09.509Z,12.93
2022-11-19T23:05:40.439Z,16.20
2022-11-19T23:08:15.452Z,14.20
2022-11-19T23:10:45.811Z,16.10
2022-11-19T23:13:34.925Z,14.73
2022-11-19T23:16:07.038Z,14.43
2022-11-19T23:18:38.104Z,17.25
2022-11-19T23:21:11.060Z,15.68
2022-11-19T23:23:40.835Z,15.73
2022-11-19T23:26:13.554Z,16.23
2022-11-19T23:28:43.366Z,15.15
2022-11-19T23:31:15.848Z,14.63
2022-11-19T23:33:46.225Z,15.38
2022-11-19T23:36:18.759Z,15.38
2022-11-19T23:38:48.366Z,15.23
2022-11-19T23:41:22.378Z,16.67
2022-11-19T23:43:53.712Z,15.18
2022-11-19T23:46:25.128Z,16.52
2022-11-19T23:48:55.801Z,15.55
2022-11-19T23:51:28.656Z,14.27
2022-11-19T23:53:58.883Z,18.73
2022-11-19T23:56:29.894Z,15.77
2022-11-19T23:59:01.484Z,16.02
